sensor_id;sensor_type;location;lat;lon;timestamp;temperature;humidity
5130;DHT22;2583;50.946;6.954;2023-07-13T00:01:50;19.70;24.30
5130;DHT22;2583;50.946;6.954;2023-07-13T00:04:18;19.60;24.50
5130;DHT22;2583;50.946;6.954;2023-07-13T00:06:46;19.60;24.70
5130;DHT22;2583;50.946;6.954;2023-07-13T00:09:14;19.50;24.80
5130;DHT22;2583;50.946;6.954;2023-07-13T00:11:41;19.50;25.10
5130;DHT22;2583;50.946;6.954;2023-07-13T00:14:08;19.50;25.20
5130;DHT22;2583;50.946;6.954;2023-07-13T00:16:37;19.50;25.40
5130;DHT22;2583;50.946;6.954;2023-07-13T00:19:05;19.50;25.40
5130;DHT22;2583;50.946;6.954;2023-07-13T00:21:32;19.40;25.50
5130;DHT22;2583;50.946;6.954;2023-07-13T00:23:58;19.50;25.80
5130;DHT22;2583;50.946;6.954;2023-07-13T00:26:27;19.40;25.90
5130;DHT22;2583;50.946;6.954;2023-07-13T00:28:54;19.40;26.00
5130;DHT22;2583;50.946;6.954;2023-07-13T00:31:21;19.40;26.10
5130;DHT22;2583;50.946;6.954;2023-07-13T00:33:47;19.30;25.90
5130;DHT22;2583;50.946;6.954;2023-07-13T00:36:14;19.40;26.10
5130;DHT22;2583;50.946;6.954;2023-07-13T00:38:41;19.30;26.10
5130;DHT22;2583;50.946;6.954;2023-07-13T00:41:09;19.30;26.20
5130;DHT22;2583;50.946;6.954;2023-07-13T00:43:36;19.30;26.30
5130;DHT22;2583;50.946;6.954;2023-07-13T00:46:26;19.20;26.50
5130;DHT22;2583;50.946;6.954;2023-07-13T00:48:56;19.10;26.70
5130;DHT22;2583;50.946;6.954;2023-07-13T00:51:48;19.10;26.90
5130;DHT22;2583;50.946;6.954;2023-07-13T00:54:19;19.00;27.20
5130;DHT22;2583;50.946;6.954;2023-07-13T00:56:49;19.00;27.40
5130;DHT22;2583;50.946;6.954;2023-07-13T00:59:18;19.00;27.60
5130;DHT22;2583;50.946;6.954;2023-07-13T01:01:46;19.00;27.80
5130;DHT22;2583;50.946;6.954;2023-07-13T01:04:14;18.90;27.80
5130;DHT22;2583;50.946;6.954;2023-07-13T01:06:42;18.90;28.50
5130;DHT22;2583;50.946;6.954;2023-07-13T01:09:11;18.90;28.30
5130;DHT22;2583;50.946;6.954;2023-07-13T01:11:38;18.90;28.50
5130;DHT22;2583;50.946;6.954;2023-07-13T01:14:05;18.90;28.60
5130;DHT22;2583;50.946;6.954;2023-07-13T01:16:34;18.90;28.60
5130;DHT22;2583;50.946;6.954;2023-07-13T01:19:12;18.80;28.80
5130;DHT22;2583;50.946;6.954;2023-07-13T01:21:42;18.80;28.90
5130;DHT22;2583;50.946;6.954;2023-07-13T01:24:09;18.80;29.10
5130;DHT22;2583;50.946;6.954;2023-07-13T01:26:36;18.80;29.30
5130;DHT22;2583;50.946;6.954;2023-07-13T01:29:03;18.60;29.50
5130;DHT22;2583;50.946;6.954;2023-07-13T01:31:29;18.60;29.90
5130;DHT22;2583;50.946;6.954;2023-07-13T01:33:56;18.60;30.00
5130;DHT22;2583;50.946;6.954;2023-07-13T01:36:24;18.50;30.50
5130;DHT22;2583;50.946;6.954;2023-07-13T01:38:51;18.50;30.80
5130;DHT22;2583;50.946;6.954;2023-07-13T01:41:18;18.40;31.10
5130;DHT22;2583;50.946;6.954;2023-07-13T01:43:44;18.40;31.00
5130;DHT22;2583;50.946;6.954;2023-07-13T01:46:11;18.40;31.40
5130;DHT22;2583;50.946;6.954;2023-07-13T01:48:49;18.40;31.90
5130;DHT22;2583;50.946;6.954;2023-07-13T01:51:17;18.40;32.20
5130;DHT22;2583;50.946;6.954;2023-07-13T01:53:44;18.30;32.70
5130;DHT22;2583;50.946;6.954;2023-07-13T01:56:11;18.30;33.00
5130;DHT22;2583;50.946;6.954;2023-07-13T01:58:38;18.30;33.30
5130;DHT22;2583;50.946;6.954;2023-07-13T02:01:05;18.40;34.20
5130;DHT22;2583;50.946;6.954;2023-07-13T02:03:32;18.40;33.90
5130;DHT22;2583;50.946;6.954;2023-07-13T02:05:58;18.30;34.20
5130;DHT22;2583;50.946;6.954;2023-07-13T02:08:25;18.30;34.70
5130;DHT22;2583;50.946;6.954;2023-07-13T02:10:52;18.20;35.00
5130;DHT22;2583;50.946;6.954;2023-07-13T02:13:19;18.20;35.20
5130;DHT22;2583;50.946;6.954;2023-07-13T02:15:45;18.30;35.70
5130;DHT22;2583;50.946;6.954;2023-07-13T02:18:12;18.20;35.80
5130;DHT22;2583;50.946;6.954;2023-07-13T02:20:44;18.20;35.90
5130;DHT22;2583;50.946;6.954;2023-07-13T02:23:11;18.20;36.00
5130;DHT22;2583;50.946;6.954;2023-07-13T02:25:38;18.20;36.40
5130;DHT22;2583;50.946;6.954;2023-07-13T02:28:05;18.10;36.60
5130;DHT22;2583;50.946;6.954;2023-07-13T02:30:33;18.10;36.80
5130;DHT22;2583;50.946;6.954;2023-07-13T02:33:00;18.10;37.10
5130;DHT22;2583;50.946;6.954;2023-07-13T02:35:27;18.10;37.00
5130;DHT22;2583;50.946;6.954;2023-07-13T02:37:54;18.10;37.00
5130;DHT22;2583;50.946;6.954;2023-07-13T02:40:21;18.10;37.10
5130;DHT22;2583;50.946;6.954;2023-07-13T02:42:47;18.10;37.30
5130;DHT22;2583;50.946;6.954;2023-07-13T02:45:14;18.10;37.50
5130;DHT22;2583;50.946;6.954;2023-07-13T02:47:41;18.10;37.60
5130;DHT22;2583;50.946;6.954;2023-07-13T02:50:09;18.10;37.80
5130;DHT22;2583;50.946;6.954;2023-07-13T02:52:36;18.10;37.80
5130;DHT22;2583;50.946;6.954;2023-07-13T02:55:03;18.10;38.10
5130;DHT22;2583;50.946;6.954;2023-07-13T02:57:29;18.10;38.20
5130;DHT22;2583;50.946;6.954;2023-07-13T02:59:57;18.00;38.60
5130;DHT22;2583;50.946;6.954;2023-07-13T03:02:24;18.00;38.60
5130;DHT22;2583;50.946;6.954;2023-07-13T03:04:51;18.00;39.00
5130;DHT22;2583;50.946;6.954;2023-07-13T03:07:17;17.90;39.30
5130;DHT22;2583;50.946;6.954;2023-07-13T03:09:44;17.90;39.80
5130;DHT22;2583;50.946;6.954;2023-07-13T03:12:11;18.00;39.80
5130;DHT22;2583;50.946;6.954;2023-07-13T03:14:37;18.00;39.80
5130;DHT22;2583;50.946;6.954;2023-07-13T03:17:04;18.00;40.10
5130;DHT22;2583;50.946;6.954;2023-07-13T03:19:31;18.00;40.40
5130;DHT22;2583;50.946;6.954;2023-07-13T03:21:58;18.00;40.50
5130;DHT22;2583;50.946;6.954;2023-07-13T03:24:25;18.00;40.60
5130;DHT22;2583;50.946;6.954;2023-07-13T03:26:52;18.00;40.60
5130;DHT22;2583;50.946;6.954;2023-07-13T03:29:19;17.90;40.70
5130;DHT22;2583;50.946;6.954;2023-07-13T03:31:46;18.00;41.10
5130;DHT22;2583;50.946;6.954;2023-07-13T03:34:13;17.90;41.10
5130;DHT22;2583;50.946;6.954;2023-07-13T03:36:39;17.90;41.40
5130;DHT22;2583;50.946;6.954;2023-07-13T03:39:06;17.80;42.10
5130;DHT22;2583;50.946;6.954;2023-07-13T03:41:35;17.80;41.80
5130;DHT22;2583;50.946;6.954;2023-07-13T03:44:02;17.70;41.60
5130;DHT22;2583;50.946;6.954;2023-07-13T03:46:29;17.70;41.90
5130;DHT22;2583;50.946;6.954;2023-07-13T03:48:56;17.60;42.10
5130;DHT22;2583;50.946;6.954;2023-07-13T03:51:23;17.60;42.30
5130;DHT22;2583;50.946;6.954;2023-07-13T03:53:50;17.60;42.60
5130;DHT22;2583;50.946;6.954;2023-07-13T03:56:18;17.60;42.80
5130;DHT22;2583;50.946;6.954;2023-07-13T03:58:47;17.50;43.40
5130;DHT22;2583;50.946;6.954;2023-07-13T04:01:16;17.50;43.60
5130;DHT22;2583;50.946;6.954;2023-07-13T04:03:43;17.50;44.10
5130;DHT22;2583;50.946;6.954;2023-07-13T04:06:30;17.60;45.00
5130;DHT22;2583;50.946;6.954;2023-07-13T04:08:59;17.60;45.60
5130;DHT22;2583;50.946;6.954;2023-07-13T04:11:28;17.60;45.90
5130;DHT22;2583;50.946;6.954;2023-07-13T04:13:56;17.60;46.30
5130;DHT22;2583;50.946;6.954;2023-07-13T04:16:23;17.60;46.70
5130;DHT22;2583;50.946;6.954;2023-07-13T04:18:51;17.70;47.00
5130;DHT22;2583;50.946;6.954;2023-07-13T04:21:22;17.70;47.10
5130;DHT22;2583;50.946;6.954;2023-07-13T04:23:49;17.70;47.60
5130;DHT22;2583;50.946;6.954;2023-07-13T04:26:15;17.80;47.70
5130;DHT22;2583;50.946;6.954;2023-07-13T04:28:42;17.80;47.90
5130;DHT22;2583;50.946;6.954;2023-07-13T04:31:09;17.80;48.50
5130;DHT22;2583;50.946;6.954;2023-07-13T04:33:36;17.80;49.10
5130;DHT22;2583;50.946;6.954;2023-07-13T04:36:03;17.70;49.90
5130;DHT22;2583;50.946;6.954;2023-07-13T04:38:32;17.70;50.90
5130;DHT22;2583;50.946;6.954;2023-07-13T04:41:01;17.70;50.80
5130;DHT22;2583;50.946;6.954;2023-07-13T04:43:28;17.80;51.20
5130;DHT22;2583;50.946;6.954;2023-07-13T04:45:56;17.70;51.90
5130;DHT22;2583;50.946;6.954;2023-07-13T04:48:24;17.80;52.40
5130;DHT22;2583;50.946;6.954;2023-07-13T04:50:57;17.80;52.90
5130;DHT22;2583;50.946;6.954;2023-07-13T04:53:25;17.70;53.40
5130;DHT22;2583;50.946;6.954;2023-07-13T04:55:53;17.80;53.90
5130;DHT22;2583;50.946;6.954;2023-07-13T04:58:20;17.80;53.90
5130;DHT22;2583;50.946;6.954;2023-07-13T05:00:48;17.80;54.60
5130;DHT22;2583;50.946;6.954;2023-07-13T05:03:15;17.80;55.40
5130;DHT22;2583;50.946;6.954;2023-07-13T05:05:42;17.70;56.00
5130;DHT22;2583;50.946;6.954;2023-07-13T05:08:09;17.70;57.10
5130;DHT22;2583;50.946;6.954;2023-07-13T05:10:36;17.70;57.40
5130;DHT22;2583;50.946;6.954;2023-07-13T05:13:02;17.80;58.00
5130;DHT22;2583;50.946;6.954;2023-07-13T05:15:29;17.90;58.30
5130;DHT22;2583;50.946;6.954;2023-07-13T05:17:56;17.90;58.40
5130;DHT22;2583;50.946;6.954;2023-07-13T05:20:23;18.00;57.70
5130;DHT22;2583;50.946;6.954;2023-07-13T05:22:50;17.90;59.10
5130;DHT22;2583;50.946;6.954;2023-07-13T05:25:17;17.90;59.60
5130;DHT22;2583;50.946;6.954;2023-07-13T05:27:44;18.00;59.70
5130;DHT22;2583;50.946;6.954;2023-07-13T05:30:13;18.00;61.20
5130;DHT22;2583;50.946;6.954;2023-07-13T05:32:40;18.10;60.70
5130;DHT22;2583;50.946;6.954;2023-07-13T05:35:08;18.00;62.40
5130;DHT22;2583;50.946;6.954;2023-07-13T05:37:36;18.10;62.40
5130;DHT22;2583;50.946;6.954;2023-07-13T05:40:03;18.20;64.60
5130;DHT22;2583;50.946;6.954;2023-07-13T05:42:30;18.30;63.60
5130;DHT22;2583;50.946;6.954;2023-07-13T05:44:57;18.50;62.20
5130;DHT22;2583;50.946;6.954;2023-07-13T05:47:24;18.50;61.30
5130;DHT22;2583;50.946;6.954;2023-07-13T05:49:51;18.60;60.80
5130;DHT22;2583;50.946;6.954;2023-07-13T05:52:18;18.60;60.80
5130;DHT22;2583;50.946;6.954;2023-07-13T05:54:45;18.70;59.90
5130;DHT22;2583;50.946;6.954;2023-07-13T05:57:11;18.70;60.30
5130;DHT22;2583;50.946;6.954;2023-07-13T05:59:38;18.80;60.00
5130;DHT22;2583;50.946;6.954;2023-07-13T06:02:05;18.80;59.70
5130;DHT22;2583;50.946;6.954;2023-07-13T06:04:32;18.70;60.60
5130;DHT22;2583;50.946;6.954;2023-07-13T06:06:59;18.70;61.50
5130;DHT22;2583;50.946;6.954;2023-07-13T06:09:26;18.80;62.20
5130;DHT22;2583;50.946;6.954;2023-07-13T06:11:53;18.80;62.90
5130;DHT22;2583;50.946;6.954;2023-07-13T06:14:20;18.80;63.00
5130;DHT22;2583;50.946;6.954;2023-07-13T06:16:47;18.80;63.20
5130;DHT22;2583;50.946;6.954;2023-07-13T06:19:13;18.70;64.80
5130;DHT22;2583;50.946;6.954;2023-07-13T06:21:40;18.60;66.30
5130;DHT22;2583;50.946;6.954;2023-07-13T06:24:07;18.70;66.40
5130;DHT22;2583;50.946;6.954;2023-07-13T06:26:34;18.80;66.60
5130;DHT22;2583;50.946;6.954;2023-07-13T06:29:00;18.80;67.00
5130;DHT22;2583;50.946;6.954;2023-07-13T06:31:27;18.80;67.00
5130;DHT22;2583;50.946;6.954;2023-07-13T06:33:54;18.80;68.40
5130;DHT22;2583;50.946;6.954;2023-07-13T06:36:21;18.80;67.90
5130;DHT22;2583;50.946;6.954;2023-07-13T06:38:47;18.90;67.90
5130;DHT22;2583;50.946;6.954;2023-07-13T06:41:15;18.90;68.10
5130;DHT22;2583;50.946;6.954;2023-07-13T06:43:41;19.10;67.50
5130;DHT22;2583;50.946;6.954;2023-07-13T06:46:08;19.20;67.20
5130;DHT22;2583;50.946;6.954;2023-07-13T06:48:36;19.10;66.20
5130;DHT22;2583;50.946;6.954;2023-07-13T06:51:03;19.20;66.20
5130;DHT22;2583;50.946;6.954;2023-07-13T06:53:30;19.30;65.10
5130;DHT22;2583;50.946;6.954;2023-07-13T06:55:56;19.30;64.50
5130;DHT22;2583;50.946;6.954;2023-07-13T06:58:23;19.30;64.80
5130;DHT22;2583;50.946;6.954;2023-07-13T07:00:51;19.40;65.00
5130;DHT22;2583;50.946;6.954;2023-07-13T07:03:19;19.40;63.00
5130;DHT22;2583;50.946;6.954;2023-07-13T07:05:46;19.40;63.30
5130;DHT22;2583;50.946;6.954;2023-07-13T07:08:13;19.50;63.70
5130;DHT22;2583;50.946;6.954;2023-07-13T07:10:40;19.60;61.80
5130;DHT22;2583;50.946;6.954;2023-07-13T07:13:07;19.70;61.00
5130;DHT22;2583;50.946;6.954;2023-07-13T07:15:35;19.60;60.50
5130;DHT22;2583;50.946;6.954;2023-07-13T07:18:02;19.90;59.60
5130;DHT22;2583;50.946;6.954;2023-07-13T07:20:29;20.00;57.90
5130;DHT22;2583;50.946;6.954;2023-07-13T07:22:57;20.20;56.90
5130;DHT22;2583;50.946;6.954;2023-07-13T07:25:24;20.30;54.60
5130;DHT22;2583;50.946;6.954;2023-07-13T07:27:50;20.30;54.60
5130;DHT22;2583;50.946;6.954;2023-07-13T07:30:20;20.30;54.50
5130;DHT22;2583;50.946;6.954;2023-07-13T07:32:50;20.40;54.40
5130;DHT22;2583;50.946;6.954;2023-07-13T07:35:19;20.40;53.40
5130;DHT22;2583;50.946;6.954;2023-07-13T07:37:46;20.60;53.40
5130;DHT22;2583;50.946;6.954;2023-07-13T07:40:17;20.80;52.20
5130;DHT22;2583;50.946;6.954;2023-07-13T07:42:47;20.80;50.70
5130;DHT22;2583;50.946;6.954;2023-07-13T07:45:14;20.90;50.00
5130;DHT22;2583;50.946;6.954;2023-07-13T07:47:41;21.00;50.10
5130;DHT22;2583;50.946;6.954;2023-07-13T07:50:08;21.00;49.50
5130;DHT22;2583;50.946;6.954;2023-07-13T07:52:35;20.90;48.80
5130;DHT22;2583;50.946;6.954;2023-07-13T07:55:04;20.90;48.70
5130;DHT22;2583;50.946;6.954;2023-07-13T07:57:35;20.90;49.40
5130;DHT22;2583;50.946;6.954;2023-07-13T08:00:05;21.00;49.00
5130;DHT22;2583;50.946;6.954;2023-07-13T08:02:35;21.10;49.30
5130;DHT22;2583;50.946;6.954;2023-07-13T08:05:05;21.10;48.30
5130;DHT22;2583;50.946;6.954;2023-07-13T08:07:38;21.30;47.90
5130;DHT22;2583;50.946;6.954;2023-07-13T08:10:09;21.40;47.60
5130;DHT22;2583;50.946;6.954;2023-07-13T08:12:37;21.60;47.40
5130;DHT22;2583;50.946;6.954;2023-07-13T08:15:11;21.60;46.40
5130;DHT22;2583;50.946;6.954;2023-07-13T08:17:38;21.60;46.80
5130;DHT22;2583;50.946;6.954;2023-07-13T08:20:05;21.70;46.00
5130;DHT22;2583;50.946;6.954;2023-07-13T08:22:32;21.80;45.80
5130;DHT22;2583;50.946;6.954;2023-07-13T08:25:00;21.70;45.80
5130;DHT22;2583;50.946;6.954;2023-07-13T08:27:27;21.70;45.10
5130;DHT22;2583;50.946;6.954;2023-07-13T08:29:54;21.60;45.40
5130;DHT22;2583;50.946;6.954;2023-07-13T08:32:22;21.70;45.60
5130;DHT22;2583;50.946;6.954;2023-07-13T08:34:50;21.80;45.20
5130;DHT22;2583;50.946;6.954;2023-07-13T08:37:18;21.90;44.50
5130;DHT22;2583;50.946;6.954;2023-07-13T08:39:46;21.80;44.70
5130;DHT22;2583;50.946;6.954;2023-07-13T08:42:45;21.80;43.70
5130;DHT22;2583;50.946;6.954;2023-07-13T08:45:20;21.80;44.50
5130;DHT22;2583;50.946;6.954;2023-07-13T08:47:52;22.00;43.50
5130;DHT22;2583;50.946;6.954;2023-07-13T08:50:25;22.10;42.70
5130;DHT22;2583;50.946;6.954;2023-07-13T08:52:55;22.10;42.30
5130;DHT22;2583;50.946;6.954;2023-07-13T08:55:26;22.00;42.60
5130;DHT22;2583;50.946;6.954;2023-07-13T08:58:11;22.10;42.30
5130;DHT22;2583;50.946;6.954;2023-07-13T09:00:57;22.20;41.70
5130;DHT22;2583;50.946;6.954;2023-07-13T09:03:45;22.20;41.10
5130;DHT22;2583;50.946;6.954;2023-07-13T09:06:14;22.50;40.30
5130;DHT22;2583;50.946;6.954;2023-07-13T09:16:59;22.30;40.00
5130;DHT22;2583;50.946;6.954;2023-07-13T09:19:30;22.40;38.80
5130;DHT22;2583;50.946;6.954;2023-07-13T09:21:59;22.20;38.80
5130;DHT22;2583;50.946;6.954;2023-07-13T09:27:29;22.50;38.20
5130;DHT22;2583;50.946;6.954;2023-07-13T09:33:08;22.90;36.40
5130;DHT22;2583;50.946;6.954;2023-07-13T09:35:35;23.00;36.30
5130;DHT22;2583;50.946;6.954;2023-07-13T09:38:12;23.10;35.30
5130;DHT22;2583;50.946;6.954;2023-07-13T09:43:21;23.10;34.20
5130;DHT22;2583;50.946;6.954;2023-07-13T09:45:48;23.40;34.10
5130;DHT22;2583;50.946;6.954;2023-07-13T09:48:17;23.60;33.70
5130;DHT22;2583;50.946;6.954;2023-07-13T09:50:44;23.70;33.30
5130;DHT22;2583;50.946;6.954;2023-07-13T09:53:17;23.80;32.40
5130;DHT22;2583;50.946;6.954;2023-07-13T09:55:48;23.80;32.50
5130;DHT22;2583;50.946;6.954;2023-07-13T09:58:24;23.90;32.60
5130;DHT22;2583;50.946;6.954;2023-07-13T10:00:58;24.10;31.80
5130;DHT22;2583;50.946;6.954;2023-07-13T10:03:29;24.20;32.00
5130;DHT22;2583;50.946;6.954;2023-07-13T10:06:09;24.40;31.70
5130;DHT22;2583;50.946;6.954;2023-07-13T10:08:37;24.40;30.10
5130;DHT22;2583;50.946;6.954;2023-07-13T10:13:58;24.20;29.80
5130;DHT22;2583;50.946;6.954;2023-07-13T10:16:28;24.20;29.40
5130;DHT22;2583;50.946;6.954;2023-07-13T10:19:06;24.40;28.70
5130;DHT22;2583;50.946;6.954;2023-07-13T10:24:49;24.40;27.40
5130;DHT22;2583;50.946;6.954;2023-07-13T10:27:20;24.60;27.90
5130;DHT22;2583;50.946;6.954;2023-07-13T10:29:59;24.40;27.40
5130;DHT22;2583;50.946;6.954;2023-07-13T10:32:27;24.30;27.20
5130;DHT22;2583;50.946;6.954;2023-07-13T10:34:54;24.40;27.30
5130;DHT22;2583;50.946;6.954;2023-07-13T10:37:26;24.30;26.90
5130;DHT22;2583;50.946;6.954;2023-07-13T10:39:56;24.20;26.80
5130;DHT22;2583;50.946;6.954;2023-07-13T10:42:36;24.30;26.80
5130;DHT22;2583;50.946;6.954;2023-07-13T10:45:14;24.30;26.60
5130;DHT22;2583;50.946;6.954;2023-07-13T10:47:43;24.40;26.70
5130;DHT22;2583;50.946;6.954;2023-07-13T10:50:17;24.40;26.60
5130;DHT22;2583;50.946;6.954;2023-07-13T10:52:50;24.40;26.90
5130;DHT22;2583;50.946;6.954;2023-07-13T11:01:15;24.60;26.10
5130;DHT22;2583;50.946;6.954;2023-07-13T11:04:01;24.60;25.50
5130;DHT22;2583;50.946;6.954;2023-07-13T11:06:34;24.50;25.60
5130;DHT22;2583;50.946;6.954;2023-07-13T11:09:33;24.40;26.10
5130;DHT22;2583;50.946;6.954;2023-07-13T11:12:02;24.40;26.20
5130;DHT22;2583;50.946;6.954;2023-07-13T11:14:59;24.20;26.60
5130;DHT22;2583;50.946;6.954;2023-07-13T11:17:35;23.90;26.80
5130;DHT22;2583;50.946;6.954;2023-07-13T11:20:23;23.80;27.10
5130;DHT22;2583;50.946;6.954;2023-07-13T11:25:35;23.80;27.90
5130;DHT22;2583;50.946;6.954;2023-07-13T11:28:12;23.80;28.20
5130;DHT22;2583;50.946;6.954;2023-07-13T11:30:49;24.00;28.00
5130;DHT22;2583;50.946;6.954;2023-07-13T11:36:16;24.20;25.60
5130;DHT22;2583;50.946;6.954;2023-07-13T11:41:43;24.00;25.50
5130;DHT22;2583;50.946;6.954;2023-07-13T11:44:17;23.90;26.00
5130;DHT22;2583;50.946;6.954;2023-07-13T11:46:46;23.80;26.00
5130;DHT22;2583;50.946;6.954;2023-07-13T11:49:18;23.80;26.50
5130;DHT22;2583;50.946;6.954;2023-07-13T11:51:45;23.80;26.50
5130;DHT22;2583;50.946;6.954;2023-07-13T11:54:32;23.80;26.60
5130;DHT22;2583;50.946;6.954;2023-07-13T11:57:03;23.80;26.90
5130;DHT22;2583;50.946;6.954;2023-07-13T11:59:34;24.10;26.90
5130;DHT22;2583;50.946;6.954;2023-07-13T12:02:16;24.00;26.60
5130;DHT22;2583;50.946;6.954;2023-07-13T12:04:44;24.20;26.60
5130;DHT22;2583;50.946;6.954;2023-07-13T12:07:16;24.40;26.40
5130;DHT22;2583;50.946;6.954;2023-07-13T12:09:43;24.30;25.80
5130;DHT22;2583;50.946;6.954;2023-07-13T12:12:21;24.40;25.50
5130;DHT22;2583;50.946;6.954;2023-07-13T12:14:51;24.20;24.90
5130;DHT22;2583;50.946;6.954;2023-07-13T12:17:20;24.20;25.20
5130;DHT22;2583;50.946;6.954;2023-07-13T12:19:49;24.30;25.40
5130;DHT22;2583;50.946;6.954;2023-07-13T12:22:17;24.30;25.20
5130;DHT22;2583;50.946;6.954;2023-07-13T12:24:46;24.40;25.30
5130;DHT22;2583;50.946;6.954;2023-07-13T12:30:06;24.30;24.30
5130;DHT22;2583;50.946;6.954;2023-07-13T12:33:01;24.20;24.30
5130;DHT22;2583;50.946;6.954;2023-07-13T12:35:29;24.20;23.80
5130;DHT22;2583;50.946;6.954;2023-07-13T12:38:02;24.30;23.90
5130;DHT22;2583;50.946;6.954;2023-07-13T12:40:33;24.40;23.80
5130;DHT22;2583;50.946;6.954;2023-07-13T12:43:03;24.50;23.70
5130;DHT22;2583;50.946;6.954;2023-07-13T12:45:33;24.60;23.70
5130;DHT22;2583;50.946;6.954;2023-07-13T12:48:14;24.50;24.00
5130;DHT22;2583;50.946;6.954;2023-07-13T12:50:46;24.40;23.80
5130;DHT22;2583;50.946;6.954;2023-07-13T12:53:17;24.50;23.50
5130;DHT22;2583;50.946;6.954;2023-07-13T12:55:49;24.80;23.00
5130;DHT22;2583;50.946;6.954;2023-07-13T12:58:34;25.20;22.70
5130;DHT22;2583;50.946;6.954;2023-07-13T13:01:04;25.30;22.20
5130;DHT22;2583;50.946;6.954;2023-07-13T13:03:37;25.20;22.30
5130;DHT22;2583;50.946;6.954;2023-07-13T13:06:20;25.30;21.90
5130;DHT22;2583;50.946;6.954;2023-07-13T13:08:51;25.60;21.50
5130;DHT22;2583;50.946;6.954;2023-07-13T13:11:19;26.20;21.30
5130;DHT22;2583;50.946;6.954;2023-07-13T13:13:46;26.60;20.50
5130;DHT22;2583;50.946;6.954;2023-07-13T13:18:50;27.40;19.40
5130;DHT22;2583;50.946;6.954;2023-07-13T13:21:18;27.40;18.60
5130;DHT22;2583;50.946;6.954;2023-07-13T13:23:46;27.50;18.30
5130;DHT22;2583;50.946;6.954;2023-07-13T13:26:14;27.60;17.90
5130;DHT22;2583;50.946;6.954;2023-07-13T13:28:45;27.80;17.40
5130;DHT22;2583;50.946;6.954;2023-07-13T13:31:12;27.90;16.80
5130;DHT22;2583;50.946;6.954;2023-07-13T13:33:42;27.30;15.80
5130;DHT22;2583;50.946;6.954;2023-07-13T13:36:20;27.10;15.90
5130;DHT22;2583;50.946;6.954;2023-07-13T13:38:49;27.80;15.80
5130;DHT22;2583;50.946;6.954;2023-07-13T13:41:17;28.10;15.30
5130;DHT22;2583;50.946;6.954;2023-07-13T13:43:44;27.90;15.70
5130;DHT22;2583;50.946;6.954;2023-07-13T13:46:21;28.10;15.60
5130;DHT22;2583;50.946;6.954;2023-07-13T13:48:49;28.10;16.10
5130;DHT22;2583;50.946;6.954;2023-07-13T13:51:20;28.10;16.10
5130;DHT22;2583;50.946;6.954;2023-07-13T13:53:48;28.50;15.80
5130;DHT22;2583;50.946;6.954;2023-07-13T13:56:15;29.10;15.40
5130;DHT22;2583;50.946;6.954;2023-07-13T13:58:44;29.40;14.20
5130;DHT22;2583;50.946;6.954;2023-07-13T14:01:18;28.70;14.40
5130;DHT22;2583;50.946;6.954;2023-07-13T14:03:45;28.20;15.00
5130;DHT22;2583;50.946;6.954;2023-07-13T14:06:16;28.20;15.00
5130;DHT22;2583;50.946;6.954;2023-07-13T14:08:43;28.70;14.60
5130;DHT22;2583;50.946;6.954;2023-07-13T14:11:16;29.30;14.10
5130;DHT22;2583;50.946;6.954;2023-07-13T14:13:47;29.60;13.80
5130;DHT22;2583;50.946;6.954;2023-07-13T14:16:17;29.70;13.60
5130;DHT22;2583;50.946;6.954;2023-07-13T14:18:45;29.60;13.90
5130;DHT22;2583;50.946;6.954;2023-07-13T14:21:14;29.80;13.60
5130;DHT22;2583;50.946;6.954;2023-07-13T14:23:43;29.60;13.30
5130;DHT22;2583;50.946;6.954;2023-07-13T14:26:15;29.80;13.20
5130;DHT22;2583;50.946;6.954;2023-07-13T14:28:48;29.70;13.00
5130;DHT22;2583;50.946;6.954;2023-07-13T14:31:16;29.10;13.10
5130;DHT22;2583;50.946;6.954;2023-07-13T14:33:44;28.70;13.80
5130;DHT22;2583;50.946;6.954;2023-07-13T14:36:40;28.20;14.30
5130;DHT22;2583;50.946;6.954;2023-07-13T14:39:14;28.00;14.50
5130;DHT22;2583;50.946;6.954;2023-07-13T14:41:41;27.50;15.40
5130;DHT22;2583;50.946;6.954;2023-07-13T14:44:15;27.30;15.40
5130;DHT22;2583;50.946;6.954;2023-07-13T14:46:43;27.30;15.60
5130;DHT22;2583;50.946;6.954;2023-07-13T14:49:30;27.10;15.80
5130;DHT22;2583;50.946;6.954;2023-07-13T14:52:00;26.80;16.40
5130;DHT22;2583;50.946;6.954;2023-07-13T14:54:27;26.60;15.80
5130;DHT22;2583;50.946;6.954;2023-07-13T14:56:54;26.80;16.00
5130;DHT22;2583;50.946;6.954;2023-07-13T14:59:21;26.80;15.90
5130;DHT22;2583;50.946;6.954;2023-07-13T15:01:49;26.80;16.30
5130;DHT22;2583;50.946;6.954;2023-07-13T15:04:17;26.50;16.50
5130;DHT22;2583;50.946;6.954;2023-07-13T15:06:53;26.70;16.80
5130;DHT22;2583;50.946;6.954;2023-07-13T15:09:21;26.60;16.50
5130;DHT22;2583;50.946;6.954;2023-07-13T15:11:47;26.60;16.30
5130;DHT22;2583;50.946;6.954;2023-07-13T15:14:14;26.70;16.20
5130;DHT22;2583;50.946;6.954;2023-07-13T15:16:41;26.60;16.20
5130;DHT22;2583;50.946;6.954;2023-07-13T15:19:09;26.60;16.00
5130;DHT22;2583;50.946;6.954;2023-07-13T15:21:37;26.60;15.80
5130;DHT22;2583;50.946;6.954;2023-07-13T15:24:04;26.60;15.70
5130;DHT22;2583;50.946;6.954;2023-07-13T15:26:32;26.60;15.90
5130;DHT22;2583;50.946;6.954;2023-07-13T15:28:59;26.60;16.00
5130;DHT22;2583;50.946;6.954;2023-07-13T15:31:26;26.60;16.40
5130;DHT22;2583;50.946;6.954;2023-07-13T15:33:56;26.30;15.90
5130;DHT22;2583;50.946;6.954;2023-07-13T15:36:24;26.20;16.30
5130;DHT22;2583;50.946;6.954;2023-07-13T15:38:55;26.10;16.50
5130;DHT22;2583;50.946;6.954;2023-07-13T15:41:24;26.10;16.90
5130;DHT22;2583;50.946;6.954;2023-07-13T15:43:54;25.90;17.10
5130;DHT22;2583;50.946;6.954;2023-07-13T15:46:23;25.70;17.50
5130;DHT22;2583;50.946;6.954;2023-07-13T15:48:51;25.80;17.50
5130;DHT22;2583;50.946;6.954;2023-07-13T15:51:29;25.70;17.80
5130;DHT22;2583;50.946;6.954;2023-07-13T15:54:00;25.70;18.00
5130;DHT22;2583;50.946;6.954;2023-07-13T15:56:34;25.40;18.20
5130;DHT22;2583;50.946;6.954;2023-07-13T15:59:01;25.20;18.40
5130;DHT22;2583;50.946;6.954;2023-07-13T16:01:30;25.00;18.40
5130;DHT22;2583;50.946;6.954;2023-07-13T16:03:59;24.80;19.10
5130;DHT22;2583;50.946;6.954;2023-07-13T16:06:30;24.60;19.90
5130;DHT22;2583;50.946;6.954;2023-07-13T16:08:58;24.50;20.80
5130;DHT22;2583;50.946;6.954;2023-07-13T16:11:33;24.20;21.60
5130;DHT22;2583;50.946;6.954;2023-07-13T16:14:01;23.90;22.90
5130;DHT22;2583;50.946;6.954;2023-07-13T16:16:30;23.60;24.00
5130;DHT22;2583;50.946;6.954;2023-07-13T16:18:59;23.50;24.60
5130;DHT22;2583;50.946;6.954;2023-07-13T16:21:28;23.40;25.50
5130;DHT22;2583;50.946;6.954;2023-07-13T16:23:56;23.20;25.70
5130;DHT22;2583;50.946;6.954;2023-07-13T16:26:33;23.30;25.60
5130;DHT22;2583;50.946;6.954;2023-07-13T16:29:18;23.30;25.90
5130;DHT22;2583;50.946;6.954;2023-07-13T16:32:08;23.30;26.00
5130;DHT22;2583;50.946;6.954;2023-07-13T16:34:39;23.30;25.80
5130;DHT22;2583;50.946;6.954;2023-07-13T16:39:49;23.10;25.80
5130;DHT22;2583;50.946;6.954;2023-07-13T16:42:19;23.00;26.50
5130;DHT22;2583;50.946;6.954;2023-07-13T16:44:46;23.00;26.00
5130;DHT22;2583;50.946;6.954;2023-07-13T16:47:15;23.10;26.30
5130;DHT22;2583;50.946;6.954;2023-07-13T16:49:42;23.20;26.50
5130;DHT22;2583;50.946;6.954;2023-07-13T16:52:12;23.10;26.30
5130;DHT22;2583;50.946;6.954;2023-07-13T16:54:40;23.00;26.60
5130;DHT22;2583;50.946;6.954;2023-07-13T16:57:26;23.00;26.60
5130;DHT22;2583;50.946;6.954;2023-07-13T16:59:56;22.80;26.70
5130;DHT22;2583;50.946;6.954;2023-07-13T17:04:52;23.00;26.60
5130;DHT22;2583;50.946;6.954;2023-07-13T17:07:19;23.00;26.80